createdAt,value
2023-02-16T00:01:24.160Z,15.30
2023-02-16T00:06:16.369Z,16.30
2023-02-16T00:11:37.993Z,15.17
2023-02-16T00:16:29.727Z,15.97
2023-02-16T00:21:22.018Z,16.10
2023-02-16T00:26:20.511Z,16.50
2023-02-16T00:31:23.430Z,15.93
2023-02-16T00:36:15.732Z,15.63
2023-02-16T00:41:36.694Z,16.47
2023-02-16T00:46:29.230Z,16.53
2023-02-16T00:51:26.096Z,16.63
2023-02-16T00:56:20.721Z,16.03
2023-02-16T01:01:18.415Z,15.77
2023-02-16T01:06:31.872Z,16.30
2023-02-16T01:11:24.131Z,16.07
2023-02-16T01:16:19.538Z,15.17
2023-02-16T01:21:11.364Z,16.60
2023-02-16T01:26:03.612Z,16.83
2023-02-16T01:30:55.517Z,16.70
2023-02-16T01:35:47.893Z,15.93
2023-02-16T01:40:49.125Z,16.53
2023-02-16T01:45:45.324Z,17.13
2023-02-16T01:50:51.470Z,16.67
2023-02-16T01:55:45.457Z,16.00
2023-02-16T02:00:49.426Z,17.73
2023-02-16T02:05:42.279Z,16.97
2023-02-16T02:10:43.555Z,15.93
2023-02-16T02:15:35.584Z,16.10
2023-02-16T02:20:55.873Z,15.97
2023-02-16T02:26:25.468Z,17.03
2023-02-16T02:31:54.140Z,17.00
2023-02-16T02:36:55.945Z,16.23
2023-02-16T02:42:04.851Z,14.93
2023-02-16T02:47:11.858Z,15.83
2023-02-16T02:52:03.936Z,16.97
2023-02-16T02:57:28.422Z,15.80
2023-02-16T03:02:22.914Z,16.33
2023-02-16T03:07:16.577Z,16.60
2023-02-16T03:12:29.809Z,16.80
2023-02-16T03:17:50.247Z,15.67
2023-02-16T03:23:01.807Z,16.53
2023-02-16T03:28:16.173Z,16.87
2023-02-16T03:33:08.292Z,16.37
2023-02-16T03:38:01.074Z,16.77
2023-02-16T03:42:53.003Z,16.97
2023-02-16T03:47:44.922Z,16.10
2023-02-16T03:52:37.003Z,16.47
2023-02-16T03:57:30.189Z,17.20
2023-02-16T04:02:23.506Z,17.30
2023-02-16T04:07:15.491Z,17.30
2023-02-16T04:12:26.676Z,16.67
2023-02-16T04:17:18.764Z,16.53
2023-02-16T04:22:10.875Z,15.53
2023-02-16T04:27:02.571Z,17.07
2023-02-16T04:31:54.602Z,17.00
2023-02-16T04:36:46.401Z,15.87
2023-02-16T04:41:38.098Z,16.03
2023-02-16T04:46:30.522Z,16.17
2023-02-16T04:51:22.298Z,17.00
2023-02-16T04:56:14.534Z,16.23
2023-02-16T05:01:08.373Z,17.53
2023-02-16T05:06:00.321Z,15.87
2023-02-16T05:11:10.556Z,16.83
2023-02-16T05:16:02.284Z,16.73
2023-02-16T05:21:12.902Z,15.57
2023-02-16T05:26:04.606Z,17.23
2023-02-16T05:30:56.353Z,16.43
2023-02-16T05:35:48.039Z,16.10
2023-02-16T05:40:39.932Z,16.70
2023-02-16T05:45:31.666Z,16.60
2023-02-16T05:50:23.366Z,16.77
2023-02-16T05:55:15.091Z,16.23
2023-02-16T06:00:07.416Z,16.83
2023-02-16T06:04:59.114Z,15.97
2023-02-16T06:09:50.817Z,15.93
2023-02-16T06:14:42.477Z,16.17
2023-02-16T06:19:34.897Z,15.47
2023-02-16T06:24:26.803Z,15.80
2023-02-16T06:29:18.513Z,16.43
2023-02-16T06:34:10.184Z,16.23
2023-02-16T06:39:02.884Z,17.33
2023-02-16T06:43:54.582Z,16.67
2023-02-16T06:48:46.208Z,15.50
2023-02-16T06:53:37.876Z,16.33
2023-02-16T06:58:29.866Z,16.43
2023-02-16T07:03:21.604Z,16.23
2023-02-16T07:08:13.883Z,17.60
2023-02-16T07:13:05.504Z,15.20
2023-02-16T07:17:57.268Z,16.40
2023-02-16T07:22:49.004Z,17.40
2023-02-16T07:27:40.634Z,16.40
2023-02-16T07:32:32.271Z,16.97
2023-02-16T07:37:24.228Z,16.37
2023-02-16T07:42:15.996Z,16.37
2023-02-16T07:47:13.590Z,16.47
2023-02-16T07:52:05.503Z,16.80
2023-02-16T07:56:57.239Z,16.67
2023-02-16T08:01:49.082Z,16.90
2023-02-16T08:06:40.900Z,18.40
2023-02-16T08:11:32.769Z,18.10
2023-02-16T08:16:26.218Z,16.73
2023-02-16T08:21:21.814Z,17.87
2023-02-16T08:26:17.410Z,17.30
2023-02-16T08:31:10.150Z,19.57
2023-02-16T08:36:03.425Z,18.37
2023-02-16T08:40:55.986Z,18.20
2023-02-16T08:45:48.549Z,18.43
2023-02-16T08:50:47.084Z,18.67
2023-02-16T08:55:39.244Z,18.60
2023-02-16T09:00:38.651Z,18.37
2023-02-16T09:05:31.164Z,19.07
2023-02-16T09:10:23.556Z,18.33
2023-02-16T09:15:16.622Z,18.43
2023-02-16T09:20:09.418Z,18.73
2023-02-16T09:25:01.378Z,18.77
2023-02-16T09:29:53.659Z,18.20
2023-02-16T09:34:47.120Z,19.17
2023-02-16T09:39:38.843Z,19.33
2023-02-16T09:44:33.410Z,19.13
2023-02-16T09:49:41.299Z,17.93
2023-02-16T09:54:40.963Z,18.60
2023-02-16T10:00:26.691Z,18.60
2023-02-16T10:05:42.825Z,19.20
2023-02-16T10:11:06.224Z,18.60
2023-02-16T10:16:02.989Z,18.83
2023-02-16T10:20:57.991Z,18.03
2023-02-16T10:26:12.798Z,18.80
2023-02-16T10:31:14.954Z,19.00
2023-02-16T10:36:31.773Z,18.43
2023-02-16T10:41:46.044Z,17.77
2023-02-16T10:46:47.172Z,18.67
2023-02-16T10:51:40.973Z,18.50
2023-02-16T10:56:52.589Z,19.80
2023-02-16T11:01:47.803Z,19.03
2023-02-16T11:06:39.603Z,18.60
2023-02-16T11:11:38.550Z,19.13
2023-02-16T11:16:31.193Z,18.90
2023-02-16T11:21:43.784Z,20.47
2023-02-16T11:26:35.559Z,19.07
2023-02-16T11:31:37.042Z,18.83
2023-02-16T11:36:38.256Z,19.57
2023-02-16T11:41:33.355Z,19.10
2023-02-16T11:46:26.124Z,18.30
2023-02-16T11:51:34.960Z,18.87
2023-02-16T11:56:29.867Z,19.00
2023-02-16T12:01:37.283Z,19.23
2023-02-16T12:06:31.930Z,18.93
2023-02-16T12:11:36.894Z,17.93
2023-02-16T12:16:47.585Z,19.63
2023-02-16T12:21:58.102Z,20.57
2023-02-16T12:27:02.750Z,19.67
2023-02-16T12:32:13.351Z,19.40
2023-02-16T12:37:08.066Z,19.43
2023-02-16T12:42:18.570Z,18.17
2023-02-16T12:47:19.537Z,19.80
2023-02-16T12:52:42.778Z,19.37
2023-02-16T12:57:35.790Z,18.00
2023-02-16T13:02:40.562Z,19.50
2023-02-16T13:07:38.492Z,20.50
2023-02-16T13:12:41.906Z,20.30
2023-02-16T13:17:55.730Z,20.03
2023-02-16T13:23:11.524Z,19.20
2023-02-16T13:28:24.632Z,18.77
2023-02-16T13:33:25.793Z,19.10
2023-02-16T13:38:40.959Z,17.37
2023-02-16T13:43:42.677Z,17.30
2023-02-16T13:48:46.235Z,16.63
2023-02-16T13:53:41.700Z,17.87
2023-02-16T13:58:33.685Z,15.30
2023-02-16T14:03:25.970Z,15.77
2023-02-16T14:08:19.670Z,16.20
2023-02-16T14:13:12.986Z,14.70
2023-02-16T14:18:38.965Z,13.83
2023-02-16T14:23:34.813Z,11.97
2023-02-16T14:28:32.508Z,11.00
2023-02-16T14:33:49.024Z,10.60
2023-02-16T14:38:40.681Z,10.63
2023-02-16T14:43:39.672Z,10.90
2023-02-16T14:48:59.290Z,11.23
2023-02-16T14:53:51.396Z,10.97
2023-02-16T14:58:46.218Z,11.97
2023-02-16T15:03:51.072Z,11.03
2023-02-16T15:08:49.000Z,10.90
2023-02-16T15:13:42.881Z,11.17
2023-02-16T15:18:42.791Z,15.53
2023-02-16T15:23:35.626Z,16.20
2023-02-16T15:28:32.512Z,16.40
2023-02-16T15:33:24.130Z,16.37
2023-02-16T15:38:22.102Z,16.13
2023-02-16T15:43:25.003Z,15.50
2023-02-16T15:48:37.690Z,15.80
2023-02-16T15:53:35.146Z,16.43
2023-02-16T15:58:27.998Z,16.57
2023-02-16T16:03:22.535Z,16.40
2023-02-16T16:08:18.074Z,16.47
2023-02-16T16:13:19.029Z,15.43
2023-02-16T16:18:32.799Z,14.27
2023-02-16T16:23:27.038Z,11.67
2023-02-16T16:28:24.877Z,9.70
2023-02-16T16:33:17.047Z,6.47
2023-02-16T16:38:27.330Z,6.33
2023-02-16T16:43:20.798Z,6.77
2023-02-16T16:48:49.300Z,7.97
2023-02-16T16:54:01.221Z,6.77
2023-02-16T16:58:56.791Z,8.00
2023-02-16T17:03:49.008Z,8.30
2023-02-16T17:08:41.935Z,7.40
2023-02-16T17:13:34.539Z,7.80
2023-02-16T17:18:26.419Z,7.47
2023-02-16T17:23:20.419Z,7.37
2023-02-16T17:28:13.856Z,8.03
2023-02-16T17:33:09.780Z,7.70
2023-02-16T17:38:07.977Z,7.80
2023-02-16T17:42:59.749Z,7.40
2023-02-16T17:47:55.201Z,7.30
2023-02-16T17:52:48.484Z,8.03
2023-02-16T17:57:40.496Z,9.17
2023-02-16T18:02:32.434Z,7.97
2023-02-16T18:07:24.279Z,8.20
2023-02-16T18:12:16.461Z,8.30
2023-02-16T18:17:08.239Z,8.50
2023-02-16T18:22:01.491Z,8.93
2023-02-16T18:26:54.853Z,8.20
2023-02-16T18:31:47.660Z,8.77
2023-02-16T18:36:39.869Z,8.57
2023-02-16T18:41:31.644Z,9.10
2023-02-16T18:46:23.516Z,8.53
2023-02-16T18:51:19.077Z,10.20
2023-02-16T18:56:12.387Z,9.00
2023-02-16T19:01:25.946Z,9.50
2023-02-16T19:06:17.879Z,8.87
2023-02-16T19:11:10.812Z,8.70
2023-02-16T19:16:02.676Z,8.77
2023-02-16T19:20:54.810Z,8.27
2023-02-16T19:25:46.661Z,8.50
2023-02-16T19:30:38.427Z,9.17
2023-02-16T19:35:30.196Z,8.97
2023-02-16T19:40:22.163Z,9.30
2023-02-16T19:45:13.999Z,8.40
2023-02-16T19:50:06.443Z,7.77
2023-02-16T19:54:58.126Z,6.70
2023-02-16T19:59:50.009Z,6.93
2023-02-16T20:04:43.588Z,6.10
2023-02-16T20:09:37.646Z,5.77
2023-02-16T20:14:29.359Z,5.77
2023-02-16T20:19:21.129Z,6.33
2023-02-16T20:24:14.103Z,5.73
2023-02-16T20:29:07.669Z,6.60
2023-02-16T20:34:00.346Z,6.50
2023-02-16T20:38:52.104Z,6.83
2023-02-16T20:43:44.259Z,7.37
2023-02-16T20:48:36.184Z,6.53
2023-02-16T20:53:28.831Z,6.10
2023-02-16T20:58:20.613Z,5.97
2023-02-16T21:03:12.317Z,6.47
2023-02-16T21:08:04.960Z,5.73
2023-02-16T21:12:56.637Z,6.77
2023-02-16T21:17:49.107Z,6.47
2023-02-16T21:22:40.955Z,7.00
2023-02-16T21:27:32.751Z,7.03
2023-02-16T21:32:24.514Z,6.47
2023-02-16T21:37:16.209Z,6.90
2023-02-16T21:42:08.039Z,7.03
2023-02-16T21:47:18.721Z,6.83
2023-02-16T21:52:10.455Z,7.17
2023-02-16T21:57:02.177Z,6.87
2023-02-16T22:01:54.079Z,6.90
2023-02-16T22:06:48.028Z,7.23
2023-02-16T22:11:40.014Z,7.17
2023-02-16T22:16:32.834Z,7.43
2023-02-16T22:21:25.627Z,7.43
2023-02-16T22:26:26.135Z,7.10
2023-02-16T22:31:19.830Z,7.33
2023-02-16T22:36:15.906Z,7.63
2023-02-16T22:41:08.487Z,7.60
2023-02-16T22:46:09.021Z,7.37
2023-02-16T22:51:02.910Z,7.03
2023-02-16T22:55:55.311Z,7.23
2023-02-16T23:00:49.716Z,7.40
2023-02-16T23:05:41.536Z,6.97
2023-02-16T23:10:33.386Z,7.53
2023-02-16T23:15:25.131Z,6.53
2023-02-16T23:20:16.899Z,6.23
2023-02-16T23:25:27.652Z,6.30
2023-02-16T23:30:19.568Z,5.80
2023-02-16T23:35:11.391Z,5.90
2023-02-16T23:40:03.269Z,6.27
2023-02-16T23:44:55.470Z,6.23
2023-02-16T23:49:47.216Z,6.17
2023-02-16T23:54:39.102Z,6.00
2023-02-16T23:59:30.956Z,5.67
